Aviation Digital Data Service (ADDS)

Output produced by METARs form (2335 UTC 29 May 2020)
found at http://www.aviationweather.gov/metar/data/
 
METAR text: EBBR 292320Z 05003KT CAVOK 13/04 Q1024 NOSIG
Conditions at: EBBR (BRUSSELS NATIONA, BE) observed 2320 UTC 29 May 2020
Temperature: 13.0°C (55°F)
Dewpoint: 4.0°C (39°F) [RH = 54%]
Pressure (altimeter): 30.24 inches Hg (1024.0 mb)
Winds: from the NE (50 degrees) at 3 MPH (3 knots; 1.5 m/s)
Visibility: 6 or more miles (10+ km)
Ceiling: ceiling and visibility are OK
Clouds: unknown
Weather: no significant weather observed at this time

Forecast for: EBBR (BRUSSELS NATIONA, BE)
Text: TAF EBBR 292320Z 3000/3106 07006KT CAVOK
Forecast period: 0000 UTC 30 May 2020 to 0600 UTC 31 May 2020
Forecast type: FROM: standard forecast or significant change
Winds: from the ENE (70 degrees) at 7 MPH (6 knots; 3.1 m/s)
Visibility: 6 or more miles 10+ km)
Ceiling: unknown
Clouds: missing
Weather: NSW  (no significant weather)